sensor_id;sensor_type;location;lat;lon;timestamp;pressure;altitude;pressure_sealevel;temperature;humidity
15314;BME280;7757;52.626;4.746;2022-12-17T00:00:41;102042.19;;;16.22;54.56
15314;BME280;7757;52.626;4.746;2022-12-17T00:03:26;102032.22;;;16.23;53.54
15314;BME280;7757;52.626;4.746;2022-12-17T00:06:13;102023.28;;;16.22;53.93
15314;BME280;7757;52.626;4.746;2022-12-17T00:08:57;102035.16;;;16.28;54.02
15314;BME280;7757;52.626;4.746;2022-12-17T00:11:41;102035.75;;;16.23;53.71
15314;BME280;7757;52.626;4.746;2022-12-17T00:14:25;102037.78;;;16.21;53.69
15314;BME280;7757;52.626;4.746;2022-12-17T00:17:10;102033.00;;;16.16;53.48
15314;BME280;7757;52.626;4.746;2022-12-17T00:19:57;102026.81;;;16.23;53.77
15314;BME280;7757;52.626;4.746;2022-12-17T00:22:42;102023.88;;;16.17;53.39
15314;BME280;7757;52.626;4.746;2022-12-17T00:25:26;102027.38;;;16.18;54.43
15314;BME280;7757;52.626;4.746;2022-12-17T00:28:11;102023.22;;;16.15;54.06
15314;BME280;7757;52.626;4.746;2022-12-17T00:30:56;102022.00;;;16.18;53.49
15314;BME280;7757;52.626;4.746;2022-12-17T00:33:40;102030.28;;;16.16;53.22
15314;BME280;7757;52.626;4.746;2022-12-17T00:36:26;102015.97;;;16.16;54.12
15314;BME280;7757;52.626;4.746;2022-12-17T00:39:11;102030.28;;;16.16;53.04
15314;BME280;7757;52.626;4.746;2022-12-17T00:41:55;102015.25;;;16.07;53.16
15314;BME280;7757;52.626;4.746;2022-12-17T00:44:39;102029.19;;;16.11;53.78
15314;BME280;7757;52.626;4.746;2022-12-17T00:47:23;102019.63;;;16.08;53.40
15314;BME280;7757;52.626;4.746;2022-12-17T00:50:08;102030.69;;;16.13;53.33
15314;BME280;7757;52.626;4.746;2022-12-17T00:53:05;102035.88;;;16.15;53.41
15314;BME280;7757;52.626;4.746;2022-12-17T00:55:49;102031.31;;;16.15;52.92
15314;BME280;7757;52.626;4.746;2022-12-17T00:58:48;102029.66;;;16.14;53.02
15314;BME280;7757;52.626;4.746;2022-12-17T01:01:32;102034.78;;;16.09;54.11
15314;BME280;7757;52.626;4.746;2022-12-17T01:04:16;102032.28;;;16.08;53.17
15314;BME280;7757;52.626;4.746;2022-12-17T01:07:00;102031.91;;;16.11;53.13
15314;BME280;7757;52.626;4.746;2022-12-17T01:09:45;102027.06;;;16.06;52.90
15314;BME280;7757;52.626;4.746;2022-12-17T01:12:30;102026.88;;;16.08;53.38
15314;BME280;7757;52.626;4.746;2022-12-17T01:15:14;102034.34;;;16.06;53.17
15314;BME280;7757;52.626;4.746;2022-12-17T01:17:58;102028.56;;;16.09;52.83
15314;BME280;7757;52.626;4.746;2022-12-17T01:20:57;102028.97;;;16.06;52.80
15314;BME280;7757;52.626;4.746;2022-12-17T01:23:41;102026.44;;;16.04;53.39
15314;BME280;7757;52.626;4.746;2022-12-17T01:26:26;102032.47;;;16.06;52.54
15314;BME280;7757;52.626;4.746;2022-12-17T01:29:11;102037.06;;;16.06;53.19
15314;BME280;7757;52.626;4.746;2022-12-17T01:31:57;102035.31;;;15.98;53.88
15314;BME280;7757;52.626;4.746;2022-12-17T01:34:41;102040.53;;;16.00;52.82
15314;BME280;7757;52.626;4.746;2022-12-17T01:37:25;102044.88;;;16.01;53.16
15314;BME280;7757;52.626;4.746;2022-12-17T01:40:09;102046.94;;;15.99;53.28
15314;BME280;7757;52.626;4.746;2022-12-17T01:42:55;102047.38;;;16.02;52.69
15314;BME280;7757;52.626;4.746;2022-12-17T01:45:42;102044.41;;;15.97;52.70
15314;BME280;7757;52.626;4.746;2022-12-17T01:48:30;102059.59;;;15.98;52.63
15314;BME280;7757;52.626;4.746;2022-12-17T01:51:17;102051.50;;;15.98;52.71
15314;BME280;7757;52.626;4.746;2022-12-17T01:54:03;102046.69;;;15.94;52.33
15314;BME280;7757;52.626;4.746;2022-12-17T01:56:48;102056.63;;;15.93;53.28
15314;BME280;7757;52.626;4.746;2022-12-17T01:59:37;102056.81;;;15.92;52.87
15314;BME280;7757;52.626;4.746;2022-12-17T02:02:24;102066.38;;;15.94;52.63
15314;BME280;7757;52.626;4.746;2022-12-17T02:05:08;102067.81;;;15.90;52.31
15314;BME280;7757;52.626;4.746;2022-12-17T02:07:57;102065.28;;;15.89;52.42
15314;BME280;7757;52.626;4.746;2022-12-17T02:10:52;102067.56;;;15.85;52.82
15314;BME280;7757;52.626;4.746;2022-12-17T02:13:42;102065.50;;;15.87;52.46
15314;BME280;7757;52.626;4.746;2022-12-17T02:16:35;102074.22;;;15.89;52.48
15314;BME280;7757;52.626;4.746;2022-12-17T02:19:30;102077.28;;;15.86;52.32
15314;BME280;7757;52.626;4.746;2022-12-17T02:22:25;102088.75;;;15.88;52.53
15314;BME280;7757;52.626;4.746;2022-12-17T02:25:15;102079.28;;;15.78;52.27
15314;BME280;7757;52.626;4.746;2022-12-17T02:28:03;102087.63;;;15.83;52.88
15314;BME280;7757;52.626;4.746;2022-12-17T02:30:48;102075.66;;;15.85;52.85
15314;BME280;7757;52.626;4.746;2022-12-17T02:33:33;102074.34;;;15.81;52.60
15314;BME280;7757;52.626;4.746;2022-12-17T02:36:17;102087.06;;;15.87;51.92
15314;BME280;7757;52.626;4.746;2022-12-17T02:39:01;102084.66;;;15.78;52.48
15314;BME280;7757;52.626;4.746;2022-12-17T02:41:49;102087.75;;;15.75;53.09
15314;BME280;7757;52.626;4.746;2022-12-17T02:44:37;102086.34;;;15.79;52.33
15314;BME280;7757;52.626;4.746;2022-12-17T02:47:23;102087.81;;;15.81;52.52
15314;BME280;7757;52.626;4.746;2022-12-17T02:50:08;102097.59;;;15.82;53.00
15314;BME280;7757;52.626;4.746;2022-12-17T02:52:53;102090.69;;;15.80;52.68
15314;BME280;7757;52.626;4.746;2022-12-17T02:55:39;102083.28;;;15.82;52.36
15314;BME280;7757;52.626;4.746;2022-12-17T02:58:23;102082.81;;;15.78;52.95
15314;BME280;7757;52.626;4.746;2022-12-17T03:01:08;102080.88;;;15.72;51.95
15314;BME280;7757;52.626;4.746;2022-12-17T03:03:52;102077.69;;;15.83;52.23
15314;BME280;7757;52.626;4.746;2022-12-17T03:06:37;102086.59;;;15.84;52.17
15314;BME280;7757;52.626;4.746;2022-12-17T03:09:21;102083.75;;;15.85;51.85
15314;BME280;7757;52.626;4.746;2022-12-17T03:12:05;102078.50;;;15.84;52.78
15314;BME280;7757;52.626;4.746;2022-12-17T03:14:49;102085.75;;;15.83;52.06
15314;BME280;7757;52.626;4.746;2022-12-17T03:17:35;102085.75;;;15.83;52.68
15314;BME280;7757;52.626;4.746;2022-12-17T03:20:19;102091.25;;;15.90;51.69
15314;BME280;7757;52.626;4.746;2022-12-17T03:23:06;102089.13;;;15.85;52.17
15314;BME280;7757;52.626;4.746;2022-12-17T03:25:51;102088.28;;;15.85;51.37
15314;BME280;7757;52.626;4.746;2022-12-17T03:28:35;102094.53;;;15.85;51.48
15314;BME280;7757;52.626;4.746;2022-12-17T03:31:19;102088.94;;;15.87;51.38
15314;BME280;7757;52.626;4.746;2022-12-17T03:34:05;102094.41;;;15.93;52.11
15314;BME280;7757;52.626;4.746;2022-12-17T03:36:50;102086.88;;;15.89;51.50
15314;BME280;7757;52.626;4.746;2022-12-17T03:39:34;102085.38;;;15.86;52.11
15314;BME280;7757;52.626;4.746;2022-12-17T03:42:18;102102.63;;;15.85;51.48
15314;BME280;7757;52.626;4.746;2022-12-17T03:45:03;102102.78;;;15.84;51.74
15314;BME280;7757;52.626;4.746;2022-12-17T03:47:47;102100.09;;;15.84;51.33
15314;BME280;7757;52.626;4.746;2022-12-17T03:50:33;102099.72;;;15.87;51.59
15314;BME280;7757;52.626;4.746;2022-12-17T03:53:16;102099.94;;;15.85;51.99
15314;BME280;7757;52.626;4.746;2022-12-17T03:56:00;102099.09;;;15.85;51.34
15314;BME280;7757;52.626;4.746;2022-12-17T03:58:47;102093.47;;;15.86;50.90
15314;BME280;7757;52.626;4.746;2022-12-17T04:01:31;102093.31;;;15.88;51.28
15314;BME280;7757;52.626;4.746;2022-12-17T04:04:15;102094.16;;;15.88;51.18
15314;BME280;7757;52.626;4.746;2022-12-17T04:07:01;102088.28;;;15.85;51.59
15314;BME280;7757;52.626;4.746;2022-12-17T04:09:45;102082.91;;;15.85;51.55
15314;BME280;7757;52.626;4.746;2022-12-17T04:12:30;102087.19;;;15.79;50.97
15314;BME280;7757;52.626;4.746;2022-12-17T04:15:14;102087.44;;;15.84;51.65
15314;BME280;7757;52.626;4.746;2022-12-17T04:17:58;102090.53;;;15.81;51.28
15314;BME280;7757;52.626;4.746;2022-12-17T04:20:42;102093.75;;;15.91;50.93
15314;BME280;7757;52.626;4.746;2022-12-17T04:23:28;102091.63;;;15.87;50.99
15314;BME280;7757;52.626;4.746;2022-12-17T04:26:12;102097.78;;;15.81;51.64
15314;BME280;7757;52.626;4.746;2022-12-17T04:28:56;102099.72;;;15.87;50.95
15314;BME280;7757;52.626;4.746;2022-12-17T04:31:40;102104.47;;;15.85;50.60
15314;BME280;7757;52.626;4.746;2022-12-17T04:34:24;102103.81;;;15.83;51.23
15314;BME280;7757;52.626;4.746;2022-12-17T04:37:08;102093.59;;;15.78;50.88
15314;BME280;7757;52.626;4.746;2022-12-17T04:39:54;102107.19;;;15.85;50.90
15314;BME280;7757;52.626;4.746;2022-12-17T04:42:38;102106.81;;;15.73;51.44
15314;BME280;7757;52.626;4.746;2022-12-17T04:45:22;102118.06;;;15.77;51.17
15314;BME280;7757;52.626;4.746;2022-12-17T04:48:08;102114.81;;;15.81;50.33
15314;BME280;7757;52.626;4.746;2022-12-17T04:50:52;102111.84;;;15.76;50.30
15314;BME280;7757;52.626;4.746;2022-12-17T04:53:37;102121.06;;;15.67;50.69
15314;BME280;7757;52.626;4.746;2022-12-17T04:56:22;102116.09;;;15.71;50.39
15314;BME280;7757;52.626;4.746;2022-12-17T04:59:07;102117.31;;;15.68;50.83
15314;BME280;7757;52.626;4.746;2022-12-17T05:01:51;102118.91;;;15.62;50.88
15314;BME280;7757;52.626;4.746;2022-12-17T05:04:35;102132.22;;;15.64;50.91
15314;BME280;7757;52.626;4.746;2022-12-17T05:07:28;102122.66;;;15.61;51.03
15314;BME280;7757;52.626;4.746;2022-12-17T05:10:11;102127.84;;;15.63;50.33
15314;BME280;7757;52.626;4.746;2022-12-17T05:12:57;102118.00;;;15.55;51.07
15314;BME280;7757;52.626;4.746;2022-12-17T05:15:42;102113.63;;;15.54;51.09
15314;BME280;7757;52.626;4.746;2022-12-17T05:18:27;102113.91;;;15.59;50.65
15314;BME280;7757;52.626;4.746;2022-12-17T05:21:11;102118.44;;;15.59;51.00
15314;BME280;7757;52.626;4.746;2022-12-17T05:23:55;102115.22;;;15.49;51.10
15314;BME280;7757;52.626;4.746;2022-12-17T05:26:39;102128.13;;;15.53;51.24
15314;BME280;7757;52.626;4.746;2022-12-17T05:29:25;102126.47;;;15.52;50.80
15314;BME280;7757;52.626;4.746;2022-12-17T05:32:09;102122.28;;;15.50;50.93
15314;BME280;7757;52.626;4.746;2022-12-17T05:34:54;102126.16;;;15.47;50.46
15314;BME280;7757;52.626;4.746;2022-12-17T05:37:38;102119.97;;;15.47;50.50
15314;BME280;7757;52.626;4.746;2022-12-17T05:40:22;102125.38;;;15.47;50.79
15314;BME280;7757;52.626;4.746;2022-12-17T05:43:10;102132.41;;;15.48;50.89
15314;BME280;7757;52.626;4.746;2022-12-17T05:45:57;102129.22;;;15.44;51.05
15314;BME280;7757;52.626;4.746;2022-12-17T05:48:41;102128.19;;;15.45;51.21
15314;BME280;7757;52.626;4.746;2022-12-17T05:51:34;102128.78;;;15.41;51.16
15314;BME280;7757;52.626;4.746;2022-12-17T05:54:18;102133.69;;;15.37;51.27
15314;BME280;7757;52.626;4.746;2022-12-17T05:57:02;102131.38;;;15.34;50.85
15314;BME280;7757;52.626;4.746;2022-12-17T05:59:46;102130.31;;;15.35;51.15
15314;BME280;7757;52.626;4.746;2022-12-17T06:02:32;102130.31;;;15.35;51.03
15314;BME280;7757;52.626;4.746;2022-12-17T06:05:16;102139.25;;;15.36;50.94
15314;BME280;7757;52.626;4.746;2022-12-17T06:08:03;102136.06;;;15.32;51.50
15314;BME280;7757;52.626;4.746;2022-12-17T06:10:48;102139.81;;;15.31;52.07
15314;BME280;7757;52.626;4.746;2022-12-17T06:13:32;102146.31;;;15.37;51.56
15314;BME280;7757;52.626;4.746;2022-12-17T06:16:16;102133.59;;;15.31;52.02
15314;BME280;7757;52.626;4.746;2022-12-17T06:19:02;102134.97;;;15.27;51.78
15314;BME280;7757;52.626;4.746;2022-12-17T06:21:46;102133.94;;;15.28;51.46
15314;BME280;7757;52.626;4.746;2022-12-17T06:24:30;102126.13;;;15.33;51.28
15314;BME280;7757;52.626;4.746;2022-12-17T06:27:14;102138.78;;;15.32;51.33
15314;BME280;7757;52.626;4.746;2022-12-17T06:29:58;102141.19;;;15.27;52.10
15314;BME280;7757;52.626;4.746;2022-12-17T06:32:43;102146.78;;;15.26;51.82
15314;BME280;7757;52.626;4.746;2022-12-17T06:35:28;102151.50;;;15.24;52.02
15314;BME280;7757;52.626;4.746;2022-12-17T06:38:12;102144.47;;;15.23;52.22
15314;BME280;7757;52.626;4.746;2022-12-17T06:40:59;102158.94;;;15.22;52.37
15314;BME280;7757;52.626;4.746;2022-12-17T06:43:43;102160.44;;;15.24;52.32
15314;BME280;7757;52.626;4.746;2022-12-17T06:46:28;102164.97;;;15.24;52.67
15314;BME280;7757;52.626;4.746;2022-12-17T06:49:12;102168.03;;;15.21;51.96
15314;BME280;7757;52.626;4.746;2022-12-17T06:51:57;102159.03;;;15.14;51.96
15314;BME280;7757;52.626;4.746;2022-12-17T06:54:42;102163.13;;;15.24;51.80
15314;BME280;7757;52.626;4.746;2022-12-17T06:57:26;102166.03;;;15.23;51.63
15314;BME280;7757;52.626;4.746;2022-12-17T07:00:11;102165.19;;;15.22;52.86
15314;BME280;7757;52.626;4.746;2022-12-17T07:02:55;102169.38;;;15.25;51.89
15314;BME280;7757;52.626;4.746;2022-12-17T07:05:39;102171.22;;;15.24;51.97
15314;BME280;7757;52.626;4.746;2022-12-17T07:08:25;102176.81;;;15.23;52.96
15314;BME280;7757;52.626;4.746;2022-12-17T07:11:09;102180.50;;;15.22;52.67
15314;BME280;7757;52.626;4.746;2022-12-17T07:13:53;102162.28;;;15.24;52.69
15314;BME280;7757;52.626;4.746;2022-12-17T07:16:37;102159.59;;;15.24;53.05
15314;BME280;7757;52.626;4.746;2022-12-17T07:19:22;102155.03;;;15.24;52.90
15314;BME280;7757;52.626;4.746;2022-12-17T07:22:06;102161.28;;;15.25;52.61
15314;BME280;7757;52.626;4.746;2022-12-17T07:24:54;102184.16;;;15.29;52.65
15314;BME280;7757;52.626;4.746;2022-12-17T07:27:51;102185.16;;;15.28;52.97
15314;BME280;7757;52.626;4.746;2022-12-17T07:30:36;102182.47;;;15.28;53.04
15314;BME280;7757;52.626;4.746;2022-12-17T07:33:20;102180.41;;;15.30;52.45
15314;BME280;7757;52.626;4.746;2022-12-17T07:36:04;102175.03;;;15.30;52.10
15314;BME280;7757;52.626;4.746;2022-12-17T07:38:49;102198.47;;;15.29;52.81
15314;BME280;7757;52.626;4.746;2022-12-17T07:41:35;102194.94;;;15.29;52.17
15314;BME280;7757;52.626;4.746;2022-12-17T07:44:19;102204.31;;;15.33;52.26
15314;BME280;7757;52.626;4.746;2022-12-17T07:47:03;102198.84;;;15.26;52.07
15314;BME280;7757;52.626;4.746;2022-12-17T07:49:47;102192.59;;;15.26;52.58
15314;BME280;7757;52.626;4.746;2022-12-17T07:52:31;102197.06;;;15.33;52.85
15314;BME280;7757;52.626;4.746;2022-12-17T07:55:16;102192.69;;;15.32;52.88
15314;BME280;7757;52.626;4.746;2022-12-17T07:58:05;102204.50;;;15.31;52.76
15314;BME280;7757;52.626;4.746;2022-12-17T08:00:49;102202.66;;;15.32;52.90
15314;BME280;7757;52.626;4.746;2022-12-17T08:03:33;102205.16;;;15.33;53.21
15314;BME280;7757;52.626;4.746;2022-12-17T08:06:17;102207.47;;;15.36;53.06
15314;BME280;7757;52.626;4.746;2022-12-17T08:09:02;102214.44;;;15.31;53.55
15314;BME280;7757;52.626;4.746;2022-12-17T08:11:46;102218.75;;;15.40;53.45
15314;BME280;7757;52.626;4.746;2022-12-17T08:14:32;102216.03;;;15.40;53.59
15314;BME280;7757;52.626;4.746;2022-12-17T08:17:19;102223.66;;;15.36;53.16
15314;BME280;7757;52.626;4.746;2022-12-17T08:20:04;102228.53;;;15.41;52.93
15314;BME280;7757;52.626;4.746;2022-12-17T08:22:49;102225.81;;;15.41;52.53
15314;BME280;7757;52.626;4.746;2022-12-17T08:25:33;102237.63;;;15.40;53.66
15314;BME280;7757;52.626;4.746;2022-12-17T08:28:17;102244.13;;;15.45;53.12
15314;BME280;7757;52.626;4.746;2022-12-17T08:31:14;102244.31;;;15.44;53.14
15314;BME280;7757;52.626;4.746;2022-12-17T08:33:59;102257.13;;;15.50;52.81
15314;BME280;7757;52.626;4.746;2022-12-17T08:36:43;102256.44;;;15.48;53.79
15314;BME280;7757;52.626;4.746;2022-12-17T08:39:27;102253.75;;;15.48;53.22
15314;BME280;7757;52.626;4.746;2022-12-17T08:42:11;102254.00;;;15.53;53.75
15314;BME280;7757;52.626;4.746;2022-12-17T08:44:55;102255.53;;;15.55;53.78
15314;BME280;7757;52.626;4.746;2022-12-17T08:47:41;102256.94;;;15.66;53.05
15314;BME280;7757;52.626;4.746;2022-12-17T08:50:25;102256.28;;;15.64;52.81
15314;BME280;7757;52.626;4.746;2022-12-17T08:53:09;102272.38;;;15.72;53.50
15314;BME280;7757;52.626;4.746;2022-12-17T08:55:53;102263.53;;;15.63;52.97
15314;BME280;7757;52.626;4.746;2022-12-17T08:58:41;102263.53;;;15.63;53.25
15314;BME280;7757;52.626;4.746;2022-12-17T09:01:25;102260.75;;;15.72;53.84
15314;BME280;7757;52.626;4.746;2022-12-17T09:04:11;102253.97;;;15.76;53.69
15314;BME280;7757;52.626;4.746;2022-12-17T09:06:55;102260.38;;;15.75;53.16
15314;BME280;7757;52.626;4.746;2022-12-17T09:09:39;102259.47;;;15.82;52.70
15314;BME280;7757;52.626;4.746;2022-12-17T09:12:23;102253.50;;;15.72;53.04
15314;BME280;7757;52.626;4.746;2022-12-17T09:15:08;102263.53;;;15.78;52.34
15314;BME280;7757;52.626;4.746;2022-12-17T09:17:52;102257.69;;;15.75;53.08
15314;BME280;7757;52.626;4.746;2022-12-17T09:20:38;102246.41;;;15.56;52.96
15314;BME280;7757;52.626;4.746;2022-12-17T09:23:22;102276.06;;;15.56;53.30
15314;BME280;7757;52.626;4.746;2022-12-17T09:26:06;102273.56;;;15.55;53.01
15314;BME280;7757;52.626;4.746;2022-12-17T09:28:50;102275.16;;;15.64;53.49
15314;BME280;7757;52.626;4.746;2022-12-17T09:31:34;102283.06;;;15.80;52.69
15314;BME280;7757;52.626;4.746;2022-12-17T09:34:29;102294.69;;;15.66;52.98
15314;BME280;7757;52.626;4.746;2022-12-17T09:37:15;102298.97;;;15.60;52.57
15314;BME280;7757;52.626;4.746;2022-12-17T09:39:59;102302.03;;;15.57;53.09
15314;BME280;7757;52.626;4.746;2022-12-17T09:42:44;102299.97;;;15.59;53.30
15314;BME280;7757;52.626;4.746;2022-12-17T09:45:36;102309.94;;;15.74;52.99
15314;BME280;7757;52.626;4.746;2022-12-17T09:48:28;102303.53;;;15.75;52.25
15314;BME280;7757;52.626;4.746;2022-12-17T09:51:20;102306.34;;;15.81;52.70
15314;BME280;7757;52.626;4.746;2022-12-17T09:54:12;102313.22;;;15.84;52.56
15314;BME280;7757;52.626;4.746;2022-12-17T09:56:58;102311.47;;;15.76;52.38
15314;BME280;7757;52.626;4.746;2022-12-17T09:59:42;102312.00;;;15.86;51.79
15314;BME280;7757;52.626;4.746;2022-12-17T10:02:28;102319.38;;;15.92;52.45
15314;BME280;7757;52.626;4.746;2022-12-17T10:05:17;102317.88;;;15.90;52.66
15314;BME280;7757;52.626;4.746;2022-12-17T10:08:04;102308.41;;;15.94;52.15
15314;BME280;7757;52.626;4.746;2022-12-17T10:10:51;102315.66;;;15.93;52.15
15314;BME280;7757;52.626;4.746;2022-12-17T10:13:35;102316.03;;;15.90;52.56
15314;BME280;7757;52.626;4.746;2022-12-17T10:16:24;102320.06;;;16.09;51.87
15314;BME280;7757;52.626;4.746;2022-12-17T10:19:12;102315.28;;;15.96;51.59
15314;BME280;7757;52.626;4.746;2022-12-17T10:22:07;102318.25;;;16.01;51.95
15314;BME280;7757;52.626;4.746;2022-12-17T10:24:52;102313.34;;;16.05;51.95
15314;BME280;7757;52.626;4.746;2022-12-17T10:27:37;102301.44;;;15.99;51.84
15314;BME280;7757;52.626;4.746;2022-12-17T10:30:21;102305.63;;;16.02;52.15
15314;BME280;7757;52.626;4.746;2022-12-17T10:33:06;102294.34;;;15.98;51.98
15314;BME280;7757;52.626;4.746;2022-12-17T10:35:51;102298.53;;;16.01;52.37
15314;BME280;7757;52.626;4.746;2022-12-17T10:38:52;102292.88;;;15.96;51.80
15314;BME280;7757;52.626;4.746;2022-12-17T10:41:40;102301.97;;;15.95;52.03
15314;BME280;7757;52.626;4.746;2022-12-17T10:44:30;102297.41;;;15.95;52.17
15314;BME280;7757;52.626;4.746;2022-12-17T10:47:15;102302.44;;;15.98;51.89
15314;BME280;7757;52.626;4.746;2022-12-17T10:50:01;102303.00;;;15.94;51.60
15314;BME280;7757;52.626;4.746;2022-12-17T10:52:47;102301.31;;;15.93;52.65
15314;BME280;7757;52.626;4.746;2022-12-17T10:55:33;102297.63;;;15.94;52.19
15314;BME280;7757;52.626;4.746;2022-12-17T10:58:20;102300.69;;;15.91;52.33
15314;BME280;7757;52.626;4.746;2022-12-17T11:01:09;102305.72;;;15.94;52.17
15314;BME280;7757;52.626;4.746;2022-12-17T11:03:56;102308.78;;;15.91;51.78
15314;BME280;7757;52.626;4.746;2022-12-17T11:06:50;102304.59;;;15.88;52.05
15314;BME280;7757;52.626;4.746;2022-12-17T11:09:40;102297.50;;;15.87;52.55
15314;BME280;7757;52.626;4.746;2022-12-17T11:12:28;102303.28;;;15.84;51.55
15314;BME280;7757;52.626;4.746;2022-12-17T11:15:18;102306.63;;;15.86;51.88
15314;BME280;7757;52.626;4.746;2022-12-17T11:18:11;102305.03;;;15.77;51.90
15314;BME280;7757;52.626;4.746;2022-12-17T11:21:04;102313.44;;;15.82;51.86
15314;BME280;7757;52.626;4.746;2022-12-17T11:23:51;102313.44;;;15.82;52.22
15314;BME280;7757;52.626;4.746;2022-12-17T11:26:38;102312.75;;;15.80;52.19
15314;BME280;7757;52.626;4.746;2022-12-17T11:29:39;102300.47;;;15.78;52.20
15314;BME280;7757;52.626;4.746;2022-12-17T11:35:45;102308.41;;;15.79;51.63
15314;BME280;7757;52.626;4.746;2022-12-17T11:38:36;102304.50;;;15.82;52.40
15314;BME280;7757;52.626;4.746;2022-12-17T11:41:29;102307.34;;;15.80;51.99
15314;BME280;7757;52.626;4.746;2022-12-17T11:44:28;102297.66;;;15.71;52.37
15314;BME280;7757;52.626;4.746;2022-12-17T11:47:21;102307.56;;;15.79;52.62
15314;BME280;7757;52.626;4.746;2022-12-17T11:50:16;102306.72;;;15.78;52.07
15314;BME280;7757;52.626;4.746;2022-12-17T11:53:13;102297.50;;;15.73;52.33
15314;BME280;7757;52.626;4.746;2022-12-17T11:56:05;102284.00;;;15.73;52.48
15314;BME280;7757;52.626;4.746;2022-12-17T11:58:57;102286.34;;;15.76;52.19
15314;BME280;7757;52.626;4.746;2022-12-17T12:02:02;102286.97;;;15.78;52.97
15314;BME280;7757;52.626;4.746;2022-12-17T12:05:02;102283.66;;;15.76;52.40
15314;BME280;7757;52.626;4.746;2022-12-17T12:07:56;102289.03;;;15.76;52.46
15314;BME280;7757;52.626;4.746;2022-12-17T12:10:55;102289.22;;;15.74;52.04
15314;BME280;7757;52.626;4.746;2022-12-17T12:13:48;102302.63;;;15.68;52.77
15314;BME280;7757;52.626;4.746;2022-12-17T12:16:44;102309.56;;;15.77;52.79
15314;BME280;7757;52.626;4.746;2022-12-17T12:19:36;102308.66;;;15.70;53.17
15314;BME280;7757;52.626;4.746;2022-12-17T12:22:30;102313.00;;;15.71;52.41
15314;BME280;7757;52.626;4.746;2022-12-17T12:25:26;102303.91;;;15.72;52.62
15314;BME280;7757;52.626;4.746;2022-12-17T12:28:22;102301.22;;;15.72;52.86
15314;BME280;7757;52.626;4.746;2022-12-17T12:31:21;102306.59;;;15.72;52.16
15314;BME280;7757;52.626;4.746;2022-12-17T12:34:11;102294.69;;;15.66;52.65
15314;BME280;7757;52.626;4.746;2022-12-17T12:36:59;102296.53;;;15.66;53.31
15314;BME280;7757;52.626;4.746;2022-12-17T12:39:50;102292.47;;;15.70;52.75
15314;BME280;7757;52.626;4.746;2022-12-17T12:42:41;102293.47;;;15.69;53.11
15314;BME280;7757;52.626;4.746;2022-12-17T12:45:37;102298.72;;;15.70;53.04
15314;BME280;7757;52.626;4.746;2022-12-17T12:48:31;102300.72;;;15.68;53.05
15314;BME280;7757;52.626;4.746;2022-12-17T12:51:19;102305.31;;;15.68;53.54
15314;BME280;7757;52.626;4.746;2022-12-17T12:54:21;102306.13;;;15.68;53.20
15314;BME280;7757;52.626;4.746;2022-12-17T12:57:24;102305.75;;;15.71;53.71
15314;BME280;7757;52.626;4.746;2022-12-17T13:00:33;102298.59;;;15.63;52.99
15314;BME280;7757;52.626;4.746;2022-12-17T13:03:24;102305.31;;;15.68;52.66
15314;BME280;7757;52.626;4.746;2022-12-17T13:06:09;102312.56;;;15.67;53.80
15314;BME280;7757;52.626;4.746;2022-12-17T13:08:37;102304.72;;;15.57;53.11
15314;BME280;7757;52.626;4.746;2022-12-17T13:11:26;102298.75;;;15.62;53.62
15314;BME280;7757;52.626;4.746;2022-12-17T13:13:54;102306.97;;;15.69;53.53
15314;BME280;7757;52.626;4.746;2022-12-17T13:16:31;102300.28;;;15.65;53.60
15314;BME280;7757;52.626;4.746;2022-12-17T13:19:14;102295.06;;;15.63;52.91
15314;BME280;7757;52.626;4.746;2022-12-17T13:21:43;102284.63;;;15.60;53.53
15314;BME280;7757;52.626;4.746;2022-12-17T13:24:11;102274.50;;;15.62;53.45
15314;BME280;7757;52.626;4.746;2022-12-17T13:26:44;102279.72;;;15.63;53.48
15314;BME280;7757;52.626;4.746;2022-12-17T13:29:19;102286.88;;;15.71;53.92
15314;BME280;7757;52.626;4.746;2022-12-17T13:32:01;102285.75;;;15.66;54.08
15314;BME280;7757;52.626;4.746;2022-12-17T13:34:37;102292.28;;;15.71;53.07
15314;BME280;7757;52.626;4.746;2022-12-17T13:37:12;102290.31;;;15.65;52.89
15314;BME280;7757;52.626;4.746;2022-12-17T13:39:50;102297.03;;;15.69;53.06
15314;BME280;7757;52.626;4.746;2022-12-17T13:42:25;102296.06;;;15.62;54.00
15314;BME280;7757;52.626;4.746;2022-12-17T13:44:53;102293.72;;;15.59;53.93
15314;BME280;7757;52.626;4.746;2022-12-17T13:47:24;102297.22;;;15.68;53.33
15314;BME280;7757;52.626;4.746;2022-12-17T13:49:52;102289.56;;;15.56;54.06
15314;BME280;7757;52.626;4.746;2022-12-17T13:52:22;102285.47;;;15.60;53.95
15314;BME280;7757;52.626;4.746;2022-12-17T13:54:49;102282.94;;;15.59;53.78
15314;BME280;7757;52.626;4.746;2022-12-17T13:57:17;102286.50;;;15.59;53.44
15314;BME280;7757;52.626;4.746;2022-12-17T13:59:48;102288.34;;;15.59;53.63
15314;BME280;7757;52.626;4.746;2022-12-17T14:02:25;102298.75;;;15.62;53.66
15314;BME280;7757;52.626;4.746;2022-12-17T14:04:53;102289.19;;;15.59;53.98
15314;BME280;7757;52.626;4.746;2022-12-17T14:07:20;102287.22;;;15.53;53.71
15314;BME280;7757;52.626;4.746;2022-12-17T14:09:48;102290.59;;;15.55;53.24
15314;BME280;7757;52.626;4.746;2022-12-17T14:12:18;102311.72;;;15.67;53.13
15314;BME280;7757;52.626;4.746;2022-12-17T14:14:49;102304.53;;;15.59;53.68
15314;BME280;7757;52.626;4.746;2022-12-17T14:17:18;102296.50;;;15.51;54.25
15314;BME280;7757;52.626;4.746;2022-12-17T14:19:50;102315.88;;;15.54;53.79
15314;BME280;7757;52.626;4.746;2022-12-17T14:22:23;102320.06;;;15.57;54.12
15314;BME280;7757;52.626;4.746;2022-12-17T14:24:53;102318.22;;;15.57;54.28
15314;BME280;7757;52.626;4.746;2022-12-17T14:27:23;102320.91;;;15.57;54.26
15314;BME280;7757;52.626;4.746;2022-12-17T14:29:51;102314.66;;;15.57;54.39
15314;BME280;7757;52.626;4.746;2022-12-17T14:32:23;102319.22;;;15.56;53.18
15314;BME280;7757;52.626;4.746;2022-12-17T14:34:51;102316.22;;;15.51;53.95
15314;BME280;7757;52.626;4.746;2022-12-17T14:37:21;102314.44;;;15.44;54.23